Time;durP1;ratioP1;P1;durP2;ratioP2;P2;SDS_P1;SDS_P2;PMS_P1;PMS_P2;Temp;Humidity;BMP_temperature;BMP_pressure;BME280_temperature;BME280_humidity;BME280_pressure;Samples;Min_cycle;Max_cycle;Signal;HPM_P1;HPM_P2
2022/07/17 00:01:06;;;;;;;7.03;2.92;;;12.80;99.90;;;;;;5067344;28;20479;-54
2022/07/17 00:03:32;;;;;;;6.63;3.05;;;12.70;99.90;;;;;;5067988;28;20058;-52
2022/07/17 00:05:58;;;;;;;6.45;3.10;;;12.70;99.90;;;;;;5069521;28;20083;-50
2022/07/17 00:08:23;;;;;;;4.68;3.20;;;12.70;99.90;;;;;;5040045;22;20074;-58
2022/07/17 00:10:49;;;;;;;6.82;4.45;;;12.70;99.90;;;;;;4961244;28;20138;-57
2022/07/17 00:13:15;;;;;;;7.85;4.28;;;12.70;99.90;;;;;;4931409;29;20443;-60
2022/07/17 00:15:41;;;;;;;8.70;4.80;;;12.70;99.90;;;;;;4951638;28;20043;-59
2022/07/17 00:18:07;;;;;;;9.65;5.60;;;12.60;99.90;;;;;;4945765;28;20520;-57
2022/07/17 00:20:33;;;;;;;9.95;5.32;;;12.60;99.90;;;;;;4948130;28;20050;-58
2022/07/17 00:22:59;;;;;;;10.35;5.88;;;12.60;99.90;;;;;;4948996;28;20122;-58
2022/07/17 00:25:25;;;;;;;9.23;5.95;;;12.50;99.90;;;;;;4932025;28;20620;-57
2022/07/17 00:27:51;;;;;;;10.45;7.00;;;12.50;99.90;;;;;;4951847;28;20031;-58
2022/07/17 00:30:17;;;;;;;9.52;5.38;;;12.50;99.90;;;;;;4948068;28;20057;-60
2022/07/17 00:32:43;;;;;;;7.78;5.50;;;12.40;99.90;;;;;;4945519;28;20128;-57
2022/07/17 00:35:10;;;;;;;8.30;5.25;;;12.50;99.90;;;;;;4948276;28;20051;-59
2022/07/17 00:37:40;;;;;;;6.07;4.97;;;12.50;99.90;;;;;;4947992;29;20047;-61
2022/07/17 00:40:08;;;;;;;11.27;5.68;;;12.40;99.90;;;;;;4935406;29;20051;-60
2022/07/17 00:42:33;;;;;;;9.90;5.05;;;12.40;99.90;;;;;;4948593;28;20162;-60
2022/07/17 00:44:59;;;;;;;9.73;5.50;;;12.30;99.90;;;;;;4947417;28;20118;-57
2022/07/17 00:47:25;;;;;;;13.27;4.57;;;12.30;99.90;;;;;;4931814;29;20516;-60
2022/07/17 00:49:50;;;;;;;5.95;3.88;;;12.30;99.90;;;;;;4946592;28;20050;-60
2022/07/17 00:52:17;;;;;;;6.95;4.10;;;12.30;99.90;;;;;;4950767;28;20174;-59
2022/07/17 00:54:45;;;;;;;7.13;4.28;;;12.30;99.90;;;;;;4947709;28;20096;-58
2022/07/17 00:57:13;;;;;;;8.13;4.22;;;12.30;99.90;;;;;;4947601;29;20056;-59
2022/07/17 00:59:40;;;;;;;6.45;3.90;;;12.30;99.90;;;;;;4944960;28;20035;-57
2022/07/17 01:02:11;;;;;;;7.55;4.47;;;12.20;99.90;;;;;;4944622;29;20047;-60
2022/07/17 01:04:37;;;;;;;6.05;4.18;;;12.20;99.90;;;;;;4943617;28;20071;-59
2022/07/17 01:07:05;;;;;;;9.40;4.53;;;12.20;99.90;;;;;;4951709;28;20239;-57
2022/07/17 01:09:32;;;;;;;8.75;4.13;;;12.10;99.90;;;;;;4946511;28;20047;-58
2022/07/17 01:11:58;;;;;;;7.38;3.80;;;12.10;99.90;;;;;;4922031;28;20469;-60
2022/07/17 01:14:25;;;;;;;7.15;3.60;;;12.10;99.90;;;;;;4934200;28;20075;-57
2022/07/17 01:16:52;;;;;;;5.70;3.58;;;12.10;99.90;;;;;;4947290;28;20059;-54
2022/07/17 01:19:18;;;;;;;5.90;3.65;;;12.00;99.90;;;;;;4946410;28;20043;-60
2022/07/17 01:21:46;;;;;;;6.50;4.00;;;12.00;99.90;;;;;;4946494;28;20075;-57
2022/07/17 01:24:12;;;;;;;5.70;3.30;;;12.00;99.90;;;;;;4945690;28;20517;-61
2022/07/17 01:26:44;;;;;;;5.80;3.22;;;11.90;99.90;;;;;;4949134;28;20162;-57
2022/07/17 01:29:11;;;;;;;6.32;3.08;;;11.90;99.90;;;;;;4950265;28;20510;-57
2022/07/17 01:31:39;;;;;;;6.75;3.65;;;11.90;99.90;;;;;;4951487;28;20406;-58
2022/07/17 01:34:09;;;;;;;6.20;3.15;;;11.90;99.90;;;;;;4955625;28;20047;-57
2022/07/17 01:36:36;;;;;;;4.80;2.80;;;11.90;99.90;;;;;;4949714;28;20118;-57
2022/07/17 01:39:02;;;;;;;7.13;2.92;;;11.90;99.90;;;;;;4951092;28;20045;-56
2022/07/17 01:41:29;;;;;;;5.15;2.97;;;11.90;99.90;;;;;;4923749;28;20121;-60
2022/07/17 01:43:56;;;;;;;5.45;2.80;;;11.90;99.90;;;;;;4952950;28;20055;-58
2022/07/17 01:46:22;;;;;;;5.45;3.28;;;12.00;99.90;;;;;;4949992;29;20489;-58
2022/07/17 01:48:47;;;;;;;4.57;2.95;;;12.00;99.90;;;;;;4949793;28;20043;-58
2022/07/17 01:51:13;;;;;;;8.27;3.30;;;12.00;99.90;;;;;;4966873;28;20460;-58
2022/07/17 01:53:39;;;;;;;5.05;2.63;;;11.90;99.90;;;;;;4950049;28;20047;-59
2022/07/17 01:56:05;;;;;;;6.55;3.38;;;11.90;99.90;;;;;;4949343;29;20079;-61
2022/07/17 01:58:31;;;;;;;5.15;2.70;;;11.90;99.90;;;;;;4935616;28;20120;-59
2022/07/17 02:00:56;;;;;;;5.43;2.80;;;11.90;99.90;;;;;;4959828;28;20051;-58
2022/07/17 02:03:22;;;;;;;7.63;2.60;;;12.00;99.90;;;;;;4950003;29;20369;-57
2022/07/17 02:05:48;;;;;;;5.10;2.60;;;12.00;99.90;;;;;;4917381;29;20510;-57
2022/07/17 02:08:14;;;;;;;4.90;2.63;;;12.00;99.90;;;;;;4946119;28;20043;-57
2022/07/17 02:10:40;;;;;;;5.35;3.17;;;11.90;99.90;;;;;;4949757;28;20043;-58
2022/07/17 02:13:06;;;;;;;5.10;3.00;;;11.90;99.90;;;;;;4958775;28;20043;-58
2022/07/17 02:15:32;;;;;;;4.65;3.13;;;11.90;99.90;;;;;;4948612;28;20093;-57
2022/07/17 02:17:57;;;;;;;4.50;3.40;;;11.80;99.90;;;;;;4953185;28;20456;-60
2022/07/17 02:20:24;;;;;;;3.92;3.20;;;11.80;99.90;;;;;;4932973;28;20063;-58
2022/07/17 02:22:50;;;;;;;7.07;3.50;;;11.80;99.90;;;;;;4950640;28;20750;-57
2022/07/17 02:25:15;;;;;;;9.00;4.95;;;11.70;99.90;;;;;;4951399;28;20063;-56
2022/07/17 02:27:41;;;;;;;5.07;4.10;;;11.70;99.90;;;;;;4949108;28;20362;-61
2022/07/17 02:30:10;;;;;;;6.38;3.90;;;11.70;99.90;;;;;;4963689;28;20032;-59
2022/07/17 02:32:36;;;;;;;7.10;4.10;;;11.70;99.90;;;;;;4949065;28;20043;-58
2022/07/17 02:35:02;;;;;;;5.97;3.90;;;11.70;99.90;;;;;;4932698;28;20040;-56
2022/07/17 02:37:28;;;;;;;4.72;4.03;;;11.60;99.90;;;;;;4947734;28;20054;-60
2022/07/17 02:39:54;;;;;;;5.35;3.45;;;11.60;99.90;;;;;;4945800;28;20050;-59
2022/07/17 02:42:21;;;;;;;6.78;4.78;;;11.60;99.90;;;;;;4949407;28;20126;-60
2022/07/17 02:44:47;;;;;;;4.78;3.72;;;11.60;99.90;;;;;;4949007;28;20055;-58
2022/07/17 02:47:22;;;;;;;4.10;2.70;;;11.60;99.90;;;;;;4949651;29;20054;-61
2022/07/17 02:49:48;;;;;;;5.10;4.28;;;11.60;99.90;;;;;;4948765;28;20410;-59
2022/07/17 02:52:14;;;;;;;9.00;3.65;;;11.70;99.90;;;;;;4948063;28;20489;-59
2022/07/17 02:54:40;;;;;;;5.70;3.28;;;11.60;99.90;;;;;;4945729;28;20162;-56
2022/07/17 02:57:05;;;;;;;6.18;3.80;;;11.60;99.90;;;;;;4926536;28;20050;-58
2022/07/17 02:59:31;;;;;;;4.90;3.00;;;11.60;99.90;;;;;;4951022;28;20125;-57
2022/07/17 03:01:57;;;;;;;5.20;3.00;;;11.60;99.90;;;;;;4976969;28;20044;-59
2022/07/17 03:04:22;;;;;;;5.72;3.47;;;11.60;99.90;;;;;;4949811;28;20662;-57
2022/07/17 03:06:48;;;;;;;4.72;3.10;;;11.60;99.90;;;;;;4948316;28;20046;-57
2022/07/17 03:09:14;;;;;;;4.65;3.00;;;11.60;99.90;;;;;;4951050;28;20109;-59
2022/07/17 03:11:40;;;;;;;4.60;3.47;;;11.60;99.90;;;;;;4948937;29;20133;-60
2022/07/17 03:14:05;;;;;;;3.95;2.70;;;11.50;99.90;;;;;;4930791;29;20047;-58
2022/07/17 03:16:31;;;;;;;5.00;2.80;;;11.50;99.90;;;;;;4941931;28;20375;-58
2022/07/17 03:18:56;;;;;;;3.25;2.40;;;11.50;99.90;;;;;;4948230;28;20051;-59
2022/07/17 03:21:22;;;;;;;5.47;3.10;;;11.40;99.90;;;;;;4948508;28;20089;-57
2022/07/17 03:23:48;;;;;;;4.57;2.80;;;11.40;99.90;;;;;;4955744;28;20433;-60
2022/07/17 03:26:13;;;;;;;6.28;3.30;;;11.40;99.90;;;;;;4948709;28;20070;-58
2022/07/17 03:28:39;;;;;;;3.85;3.00;;;11.50;99.90;;;;;;4948339;28;20513;-59
2022/07/17 03:31:05;;;;;;;3.30;2.65;;;11.60;99.90;;;;;;4948674;28;20101;-58
2022/07/17 03:33:30;;;;;;;3.22;2.42;;;11.50;99.90;;;;;;4949734;28;20104;-57
2022/07/17 03:35:56;;;;;;;5.95;3.20;;;11.60;99.90;;;;;;4947464;28;20402;-58
2022/07/17 03:38:22;;;;;;;3.13;2.70;;;11.60;99.90;;;;;;4943967;28;20305;-54
2022/07/17 03:40:47;;;;;;;8.70;3.63;;;11.70;99.90;;;;;;4941146;28;20043;-57
2022/07/17 03:43:13;;;;;;;3.88;2.63;;;11.70;99.90;;;;;;4980699;28;20044;-57
2022/07/17 03:45:39;;;;;;;4.78;2.88;;;11.70;99.90;;;;;;4913496;28;20043;-58
2022/07/17 03:48:05;;;;;;;3.85;3.03;;;11.80;99.90;;;;;;4944819;29;20090;-58
2022/07/17 03:50:31;;;;;;;6.78;3.33;;;11.90;99.90;;;;;;4946004;28;20103;-58
2022/07/17 03:52:57;;;;;;;6.32;3.40;;;11.90;99.90;;;;;;4955265;28;20074;-59
2022/07/17 03:55:23;;;;;;;5.90;4.07;;;11.90;99.90;;;;;;4949234;28;20035;-57
2022/07/17 03:57:48;;;;;;;4.40;3.78;;;11.90;99.90;;;;;;4952792;28;20039;-57
2022/07/17 04:00:15;;;;;;;6.13;4.07;;;11.90;99.90;;;;;;4944054;28;20401;-56
2022/07/17 04:02:41;;;;;;;6.55;4.35;;;11.90;99.90;;;;;;4948500;28;20043;-58
2022/07/17 04:05:10;;;;;;;5.75;4.57;;;11.90;99.90;;;;;;4946257;28;20054;-58
2022/07/17 04:07:40;;;;;;;4.45;3.70;;;12.00;99.90;;;;;;4951244;28;20047;-59
2022/07/17 04:10:07;;;;;;;4.40;3.58;;;12.00;99.90;;;;;;4949228;28;20132;-59
2022/07/17 04:12:33;;;;;;;5.13;3.20;;;12.10;99.90;;;;;;4948318;28;20071;-59
2022/07/17 04:14:59;;;;;;;5.97;3.25;;;12.20;99.90;;;;;;4949019;28;20422;-59
2022/07/17 04:17:25;;;;;;;8.30;3.72;;;12.20;99.90;;;;;;4948597;28;20046;-58
2022/07/17 04:19:51;;;;;;;6.72;2.90;;;12.20;99.90;;;;;;4948543;28;20055;-57
2022/07/17 04:22:17;;;;;;;7.32;3.50;;;12.30;99.90;;;;;;4948449;28;20051;-57
2022/07/17 04:24:43;;;;;;;4.40;3.00;;;12.40;99.90;;;;;;4942832;28;20043;-57
2022/07/17 04:27:09;;;;;;;6.85;3.55;;;12.40;99.90;;;;;;4948863;28;20039;-57
2022/07/17 04:29:36;;;;;;;4.20;3.47;;;12.40;99.90;;;;;;4948386;28;20054;-57
2022/07/17 04:32:02;;;;;;;7.18;3.50;;;12.50;99.90;;;;;;4947581;28;20039;-58
2022/07/17 04:34:28;;;;;;;5.75;3.20;;;12.50;99.90;;;;;;4967027;28;20305;-58
2022/07/17 04:36:54;;;;;;;5.78;3.85;;;12.60;99.90;;;;;;4947687;28;20039;-57
2022/07/17 04:39:20;;;;;;;4.18;2.63;;;12.60;99.90;;;;;;4947752;28;20088;-55
2022/07/17 04:41:46;;;;;;;5.68;4.05;;;12.60;99.90;;;;;;4951325;28;20498;-58
2022/07/17 04:44:11;;;;;;;5.25;3.40;;;12.70;99.90;;;;;;4947252;28;20035;-57
2022/07/17 04:46:37;;;;;;;6.80;3.95;;;12.70;99.90;;;;;;4943981;28;20407;-60
2022/07/17 04:49:03;;;;;;;5.25;3.88;;;12.80;99.90;;;;;;4953739;28;20035;-60
2022/07/17 04:51:29;;;;;;;5.55;3.22;;;12.80;99.90;;;;;;4952031;28;20074;-58
2022/07/17 04:53:54;;;;;;;5.70;3.08;;;12.80;99.90;;;;;;4948441;29;20035;-58
2022/07/17 04:56:20;;;;;;;3.78;2.30;;;12.80;99.90;;;;;;4947644;28;20101;-58
2022/07/17 04:58:46;;;;;;;6.88;3.15;;;12.90;99.90;;;;;;4957992;28;20073;-59
2022/07/17 05:01:11;;;;;;;5.07;3.03;;;12.90;99.90;;;;;;4936813;28;20375;-61
2022/07/17 05:03:37;;;;;;;7.22;3.47;;;12.90;99.90;;;;;;4952386;28;20082;-59
2022/07/17 05:06:04;;;;;;;5.18;2.20;;;13.00;99.90;;;;;;4950893;28;20486;-58
2022/07/17 05:08:30;;;;;;;2.95;1.83;;;13.00;99.90;;;;;;4952207;28;20051;-61
2022/07/17 05:10:55;;;;;;;6.30;2.78;;;13.10;99.90;;;;;;4950707;29;20415;-60
2022/07/17 05:13:21;;;;;;;6.18;2.92;;;13.10;99.90;;;;;;4900834;29;20039;-58
2022/07/17 05:15:47;;;;;;;6.13;2.88;;;13.20;99.90;;;;;;4949854;28;20051;-58
2022/07/17 05:18:13;;;;;;;6.53;2.35;;;13.20;99.90;;;;;;4929870;29;20116;-58
2022/07/17 05:20:40;;;;;;;7.22;2.85;;;13.30;99.90;;;;;;4949381;28;20134;-56
2022/07/17 05:23:06;;;;;;;6.82;3.15;;;13.30;99.90;;;;;;4957705;28;20039;-61
2022/07/17 05:25:32;;;;;;;4.22;2.00;;;13.30;99.90;;;;;;4949939;28;20053;-60
2022/07/17 05:27:58;;;;;;;7.97;2.35;;;13.40;99.90;;;;;;4951120;28;20048;-58
2022/07/17 05:30:24;;;;;;;4.15;1.77;;;13.40;99.90;;;;;;4967362;28;20502;-63
2022/07/17 05:32:49;;;;;;;5.38;2.20;;;13.40;99.90;;;;;;4952375;28;20409;-57
2022/07/17 05:35:15;;;;;;;5.20;2.22;;;13.50;99.90;;;;;;4940807;28;20047;-57
2022/07/17 05:37:41;;;;;;;6.88;2.67;;;13.60;99.90;;;;;;4952278;28;20047;-61
2022/07/17 05:40:07;;;;;;;4.43;2.03;;;13.60;99.90;;;;;;4952834;28;20043;-59
2022/07/17 05:42:33;;;;;;;5.47;2.58;;;13.70;99.90;;;;;;4926986;28;20064;-58
2022/07/17 05:44:59;;;;;;;3.50;2.17;;;13.80;99.90;;;;;;4950345;29;20043;-61
2022/07/17 05:47:25;;;;;;;5.63;2.08;;;13.90;99.90;;;;;;4950903;29;20498;-58
2022/07/17 05:49:51;;;;;;;4.72;2.08;;;13.90;99.90;;;;;;4953986;28;20054;-61
2022/07/17 05:52:17;;;;;;;6.80;2.20;;;14.00;99.90;;;;;;4944101;28;20040;-58
2022/07/17 05:54:42;;;;;;;6.00;2.60;;;14.10;99.90;;;;;;4932059;28;20047;-57
2022/07/17 05:57:08;;;;;;;5.15;2.13;;;14.30;99.90;;;;;;4949864;28;20506;-59
2022/07/17 05:59:34;;;;;;;3.58;2.10;;;14.40;99.90;;;;;;4983267;28;20029;-59
2022/07/17 06:02:00;;;;;;;5.60;2.63;;;14.50;99.90;;;;;;4938010;29;20047;-60
2022/07/17 06:04:26;;;;;;;5.38;2.55;;;14.60;99.90;;;;;;4952932;28;20469;-59
2022/07/17 06:06:52;;;;;;;4.88;2.00;;;14.70;99.90;;;;;;4951440;28;20820;-61
2022/07/17 06:09:18;;;;;;;3.88;1.90;;;14.80;99.90;;;;;;4965126;23;20101;-60
2022/07/17 06:11:43;;;;;;;5.68;2.10;;;14.90;99.90;;;;;;4951347;29;20039;-60
2022/07/17 06:14:09;;;;;;;4.95;2.00;;;15.10;99.90;;;;;;4947828;28;20065;-61
2022/07/17 06:16:35;;;;;;;5.32;2.75;;;15.20;99.90;;;;;;4950137;28;20573;-61
2022/07/17 06:19:01;;;;;;;6.82;1.85;;;15.30;99.90;;;;;;4949525;28;20047;-60
2022/07/17 06:21:27;;;;;;;7.28;2.45;;;15.40;99.90;;;;;;4987769;28;20043;-61
2022/07/17 06:23:52;;;;;;;7.13;2.05;;;15.40;99.90;;;;;;4953272;28;20039;-60
2022/07/17 06:26:18;;;;;;;5.75;2.00;;;15.50;99.90;;;;;;4948664;28;20039;-60
2022/07/17 06:28:44;;;;;;;4.82;2.00;;;15.60;99.90;;;;;;4948987;28;20036;-60
2022/07/17 06:31:09;;;;;;;8.10;2.70;;;15.70;99.90;;;;;;4949751;28;20126;-58
2022/07/17 06:33:36;;;;;;;8.52;2.42;;;15.70;99.90;;;;;;4949485;28;20039;-59
2022/07/17 06:36:03;;;;;;;8.20;2.80;;;15.80;99.90;;;;;;4977199;28;20051;-61
2022/07/17 06:38:28;;;;;;;12.32;2.75;;;15.90;99.90;;;;;;4946214;28;20099;-61
2022/07/17 06:40:54;;;;;;;6.70;2.25;;;15.90;99.90;;;;;;4958369;28;20055;-61
2022/07/17 06:43:20;;;;;;;6.63;2.45;;;15.90;99.90;;;;;;4933470;29;20122;-60
2022/07/17 06:45:46;;;;;;;6.25;2.65;;;16.00;99.90;;;;;;4949990;28;20101;-61
2022/07/17 06:48:11;;;;;;;8.25;3.13;;;16.00;99.90;;;;;;4949213;28;20546;-59
2022/07/17 06:50:37;;;;;;;9.00;5.35;;;16.10;99.90;;;;;;4949870;28;20122;-60
2022/07/17 06:53:03;;;;;;;6.50;4.18;;;16.10;99.90;;;;;;4950418;28;20126;-56
2022/07/17 06:55:29;;;;;;;5.93;4.47;;;16.10;99.90;;;;;;4949320;28;20122;-61
2022/07/17 06:57:55;;;;;;;8.50;4.82;;;16.20;99.90;;;;;;4949769;28;20541;-61
2022/07/17 07:00:20;;;;;;;10.73;4.35;;;16.20;99.90;;;;;;4949503;28;20126;-61
2022/07/17 07:02:46;;;;;;;8.00;3.50;;;16.30;99.90;;;;;;4950028;28;20211;-61
2022/07/17 07:05:12;;;;;;;5.97;2.80;;;16.30;99.90;;;;;;4948783;28;20050;-61
2022/07/17 07:07:38;;;;;;;6.38;2.53;;;16.30;99.90;;;;;;4949934;28;20035;-60
2022/07/17 07:10:04;;;;;;;6.93;2.95;;;16.30;99.90;;;;;;4948472;28;20090;-59
2022/07/17 07:12:30;;;;;;;6.43;3.05;;;16.30;99.90;;;;;;4950168;28;20478;-58
2022/07/17 07:14:56;;;;;;;6.82;2.75;;;16.40;99.90;;;;;;4940718;28;20035;-61
2022/07/17 07:17:21;;;;;;;7.18;3.47;;;16.40;99.90;;;;;;4943992;29;20043;-59
2022/07/17 07:19:47;;;;;;;5.85;3.13;;;16.50;99.90;;;;;;4949659;28;20122;-59
2022/07/17 07:22:14;;;;;;;6.15;3.05;;;16.50;99.90;;;;;;4953378;28;20144;-59
2022/07/17 07:24:40;;;;;;;6.70;2.97;;;16.50;99.90;;;;;;4949093;28;20046;-60
2022/07/17 07:27:05;;;;;;;10.00;2.92;;;16.60;99.90;;;;;;4949769;28;20051;-58
2022/07/17 07:29:31;;;;;;;6.00;2.17;;;16.60;99.90;;;;;;4947794;29;20058;-59
2022/07/17 07:31:57;;;;;;;9.05;2.95;;;16.60;99.90;;;;;;4954677;28;20074;-61
2022/07/17 07:34:23;;;;;;;8.80;1.90;;;16.70;99.90;;;;;;4931000;29;20050;-61
2022/07/17 07:36:48;;;;;;;5.90;1.95;;;16.70;99.90;;;;;;4949839;28;20063;-60
2022/07/17 07:39:15;;;;;;;8.32;2.08;;;16.80;99.90;;;;;;4977756;28;20054;-61
2022/07/17 07:41:41;;;;;;;9.15;2.45;;;16.90;99.90;;;;;;4949765;28;20062;-61
2022/07/17 07:44:07;;;;;;;7.18;1.80;;;17.00;99.90;;;;;;4947907;28;20051;-61
2022/07/17 07:46:34;;;;;;;4.47;1.40;;;17.10;99.90;;;;;;4949537;28;20035;-59
2022/07/17 07:48:59;;;;;;;4.28;1.95;;;17.10;99.90;;;;;;4948287;28;20422;-60
2022/07/17 07:51:26;;;;;;;6.65;1.33;;;17.30;99.90;;;;;;4932314;28;20101;-59
2022/07/17 07:53:52;;;;;;;3.83;1.58;;;17.30;99.90;;;;;;4947912;28;20071;-60
2022/07/17 07:56:18;;;;;;;8.63;1.65;;;17.50;99.90;;;;;;4955107;28;20121;-60
2022/07/17 07:58:43;;;;;;;6.93;1.40;;;17.60;99.90;;;;;;4946843;28;20169;-60
2022/07/17 08:01:09;;;;;;;6.72;2.00;;;17.80;99.90;;;;;;4980259;28;20440;-57
2022/07/17 08:03:35;;;;;;;6.15;1.40;;;17.90;99.90;;;;;;4949215;28;20047;-60
2022/07/17 08:06:01;;;;;;;5.53;1.30;;;18.00;99.90;;;;;;4949489;28;20418;-58
2022/07/17 08:08:26;;;;;;;5.18;1.80;;;18.10;99.90;;;;;;4948769;28;20085;-59
2022/07/17 08:10:52;;;;;;;7.82;1.60;;;18.20;99.90;;;;;;4984090;28;20533;-61
2022/07/17 08:13:18;;;;;;;4.70;1.42;;;18.30;99.90;;;;;;4948706;28;20039;-59
2022/07/17 08:15:44;;;;;;;4.15;1.42;;;18.40;99.90;;;;;;4945741;28;20043;-58
2022/07/17 08:18:09;;;;;;;5.95;1.50;;;18.60;99.90;;;;;;4949428;28;20537;-60
2022/07/17 08:20:35;;;;;;;5.40;1.65;;;18.70;99.90;;;;;;4948316;28;20490;-61
2022/07/17 08:23:01;;;;;;;4.72;1.20;;;18.80;99.90;;;;;;4948470;28;20051;-61
2022/07/17 08:25:27;;;;;;;3.95;1.05;;;18.90;99.90;;;;;;4948276;28;20079;-58
2022/07/17 08:27:52;;;;;;;7.28;1.50;;;19.00;99.90;;;;;;4931758;28;20561;-60
2022/07/17 08:30:18;;;;;;;13.55;1.55;;;19.10;99.90;;;;;;4949431;28;20441;-59
2022/07/17 08:32:44;;;;;;;5.82;1.42;;;19.20;99.90;;;;;;4950577;28;20042;-60
2022/07/17 08:35:11;;;;;;;4.13;1.52;;;19.30;99.90;;;;;;4948709;28;20040;-58
2022/07/17 08:37:51;;;;;;;5.15;1.33;;;19.40;99.90;;;;;;4949676;28;20043;-57
2022/07/17 08:40:21;;;;;;;5.72;1.40;;;19.30;99.90;;;;;;4939414;28;20043;-58
2022/07/17 08:42:47;;;;;;;3.65;1.05;;;19.30;99.90;;;;;;4948696;28;20046;-56
2022/07/17 08:45:13;;;;;;;6.07;1.65;;;19.40;99.90;;;;;;4970171;28;20055;-56
2022/07/17 08:47:39;;;;;;;5.05;1.80;;;19.60;99.90;;;;;;4952777;28;20046;-55
2022/07/17 08:50:05;;;;;;;3.38;1.48;;;19.60;99.90;;;;;;4977898;28;20429;-57
2022/07/17 08:52:31;;;;;;;7.00;1.33;;;19.60;99.90;;;;;;4946239;28;20039;-60
2022/07/17 08:54:57;;;;;;;5.75;1.50;;;19.70;99.90;;;;;;4947258;28;20039;-58
2022/07/17 08:57:23;;;;;;;4.28;1.17;;;19.80;99.90;;;;;;4960721;28;20038;-60
2022/07/17 08:59:49;;;;;;;5.65;1.35;;;19.90;99.90;;;;;;4948829;28;20043;-57
2022/07/17 09:02:14;;;;;;;4.00;1.25;;;20.10;99.90;;;;;;4946518;28;20039;-58
2022/07/17 09:04:40;;;;;;;4.32;1.23;;;20.20;99.90;;;;;;4948295;28;20039;-59
2022/07/17 09:07:06;;;;;;;3.97;1.30;;;20.40;99.90;;;;;;4947050;29;20139;-60
2022/07/17 09:09:36;;;;;;;6.22;1.10;;;20.30;99.90;;;;;;4948640;28;20106;-60
2022/07/17 09:12:04;;;;;;;3.35;1.10;;;20.30;99.90;;;;;;4991386;28;20041;-61
2022/07/17 09:14:38;;;;;;;4.60;1.10;;;20.50;99.90;;;;;;4949989;28;20043;-61
2022/07/17 09:17:05;;;;;;;3.08;1.23;;;20.70;99.90;;;;;;4948066;28;20043;-60
2022/07/17 09:19:37;;;;;;;4.88;1.38;;;20.80;99.80;;;;;;4947777;28;20046;-60
2022/07/17 09:22:20;;;;;;;3.72;1.40;;;20.90;99.60;;;;;;4940785;28;20058;-61
2022/07/17 09:24:54;;;;;;;;;;;21.00;99.60;;;;;;4947005;28;20036;-59
2022/07/17 09:27:23;;;;;;;8.45;1.42;;;21.00;99.40;;;;;;4947569;28;19925;-59
2022/07/17 09:29:53;;;;;;;5.45;1.30;;;21.20;99.70;;;;;;4949901;28;20100;-59
2022/07/17 09:32:20;;;;;;;6.80;1.70;;;21.30;99.20;;;;;;4947778;28;20043;-60
2022/07/17 09:34:48;;;;;;;3.30;1.17;;;21.30;98.60;;;;;;4944544;28;20047;-59
2022/07/17 09:37:14;;;;;;;5.47;1.35;;;21.30;98.70;;;;;;4950007;28;20043;-58
2022/07/17 09:39:40;;;;;;;4.45;1.17;;;21.40;98.60;;;;;;4965438;28;20036;-58
2022/07/17 09:42:06;;;;;;;3.90;1.55;;;21.40;98.40;;;;;;4967141;28;20100;-58
2022/07/17 09:44:32;;;;;;;5.25;1.35;;;21.50;98.40;;;;;;4946285;28;20130;-59
2022/07/17 09:47:00;;;;;;;7.80;1.50;;;21.60;98.20;;;;;;4952523;28;20049;-60
2022/07/17 09:49:27;;;;;;;5.20;1.42;;;21.60;98.30;;;;;;4951781;28;20047;-58
2022/07/17 09:51:53;;;;;;;5.53;1.50;;;21.60;97.00;;;;;;4952297;28;20043;-58
2022/07/17 09:54:23;;;;;;;2.55;1.40;;;21.60;97.80;;;;;;4951105;28;20490;-57
2022/07/17 09:56:57;;;;;;;4.00;1.48;;;21.80;97.90;;;;;;4951970;28;20039;-60
2022/07/17 09:59:26;;;;;;;5.50;1.90;;;21.90;97.60;;;;;;4951363;28;20043;-59
2022/07/17 10:01:53;;;;;;;3.88;1.80;;;21.80;96.50;;;;;;4951119;28;20059;-55
2022/07/17 10:04:18;;;;;;;4.28;1.38;;;21.50;97.40;;;;;;4942623;28;20501;-59
2022/07/17 10:06:44;;;;;;;3.75;1.83;;;21.70;98.10;;;;;;4949365;28;20039;-58
2022/07/17 10:09:10;;;;;;;4.75;1.92;;;22.00;97.80;;;;;;4976444;28;20090;-59
2022/07/17 10:11:38;;;;;;;5.90;1.85;;;22.20;98.10;;;;;;4962691;28;20073;-59
2022/07/17 10:14:08;;;;;;;5.15;1.50;;;22.30;97.90;;;;;;4943800;29;20078;-58
2022/07/17 10:16:37;;;;;;;5.63;1.30;;;22.50;98.00;;;;;;4951636;28;20039;-60
2022/07/17 10:19:03;;;;;;;5.45;1.40;;;22.70;97.30;;;;;;4949427;29;20039;-60
2022/07/17 10:21:30;;;;;;;1.55;1.17;;;22.80;97.10;;;;;;4950018;28;20505;-60
2022/07/17 10:23:56;;;;;;;4.05;1.33;;;22.90;97.10;;;;;;4950855;28;20045;-60
2022/07/17 10:26:38;;;;;;;6.72;2.10;;;22.90;96.40;;;;;;4949771;28;20047;-58
2022/07/17 10:29:26;;;;;;;3.63;1.27;;;22.90;95.50;;;;;;4949882;28;20122;-60
2022/07/17 10:31:53;;;;;;;4.28;1.70;;;22.90;96.20;;;;;;4948267;28;20230;-60
2022/07/17 10:34:21;;;;;;;6.43;1.70;;;23.00;95.20;;;;;;4949453;28;20432;-60
2022/07/17 10:36:47;;;;;;;3.85;1.38;;;23.00;95.90;;;;;;4950200;28;20069;-60
2022/07/17 10:39:18;;;;;;;3.55;1.40;;;23.20;97.30;;;;;;4950111;28;20860;-55
2022/07/17 10:41:59;;;;;;;3.90;1.42;;;23.50;96.40;;;;;;4939804;29;20055;-55
2022/07/17 10:44:26;;;;;;;4.85;1.27;;;23.50;96.00;;;;;;4949402;28;20092;-55
2022/07/17 10:46:53;;;;;;;5.15;1.50;;;23.50;95.80;;;;;;4948421;28;20051;-56
2022/07/17 10:49:19;;;;;;;2.85;1.30;;;23.60;95.70;;;;;;4950033;28;20120;-60
2022/07/17 10:51:47;;;;;;;4.68;1.50;;;23.70;95.70;;;;;;4949864;28;20089;-58
2022/07/17 10:54:13;;;;;;;5.40;1.30;;;23.60;95.70;;;;;;4950025;28;20522;-59
2022/07/17 10:56:40;;;;;;;2.22;1.17;;;23.70;95.80;;;;;;4950054;28;20043;-58
2022/07/17 10:59:06;;;;;;;3.67;1.40;;;23.70;95.60;;;;;;4949080;28;20062;-58
2022/07/17 11:01:32;;;;;;;3.83;1.33;;;23.70;94.90;;;;;;4949476;28;20798;-60
2022/07/17 11:04:01;;;;;;;3.13;1.58;;;23.80;95.50;;;;;;4951715;28;20039;-60
2022/07/17 11:06:31;;;;;;;2.38;1.30;;;23.90;94.90;;;;;;4949506;28;20070;-61
2022/07/17 11:09:08;;;;;;;4.20;1.67;;;23.80;93.50;;;;;;4946543;28;20205;-54
2022/07/17 11:11:40;;;;;;;2.30;1.42;;;23.70;94.20;;;;;;4953159;28;20352;-60
2022/07/17 11:14:18;;;;;;;4.53;1.60;;;23.90;94.40;;;;;;4949742;28;20047;-58
2022/07/17 11:16:49;;;;;;;3.10;1.50;;;24.20;94.60;;;;;;4949404;28;20391;-57
2022/07/17 11:19:31;;;;;;;4.85;1.50;;;24.20;93.90;;;;;;4948901;28;20051;-58
2022/07/17 11:21:59;;;;;;;4.13;1.48;;;24.10;92.90;;;;;;4949883;28;20073;-58
2022/07/17 11:24:34;;;;;;;7.18;2.05;;;24.20;94.40;;;;;;4980469;28;20058;-60
2022/07/17 11:27:00;;;;;;;3.95;1.30;;;24.30;93.60;;;;;;4939972;28;20039;-57
2022/07/17 11:29:26;;;;;;;5.00;1.60;;;24.30;93.30;;;;;;4953527;28;20563;-61
2022/07/17 11:31:56;;;;;;;3.47;1.83;;;24.60;93.80;;;;;;4948903;28;20047;-60
2022/07/17 11:34:25;;;;;;;4.00;1.42;;;24.70;93.00;;;;;;4948088;28;20131;-59
2022/07/17 11:36:50;;;;;;;3.65;1.60;;;24.80;92.30;;;;;;4949007;28;20093;-60
2022/07/17 11:39:18;;;;;;;4.25;1.70;;;24.90;92.30;;;;;;4948741;28;20046;-60
2022/07/17 11:41:46;;;;;;;3.72;1.50;;;25.10;93.40;;;;;;4964434;28;20112;-59
2022/07/17 11:44:18;;;;;;;4.03;1.98;;;25.20;92.30;;;;;;4947777;29;20043;-60
2022/07/17 11:46:45;;;;;;;5.60;2.33;;;25.20;91.50;;;;;;4948619;28;20047;-60
2022/07/17 11:49:23;;;;;;;5.38;1.85;;;25.30;92.20;;;;;;4948993;28;20088;-60
2022/07/17 11:51:49;;;;;;;3.88;1.70;;;25.50;91.10;;;;;;4959864;28;20043;-61
2022/07/17 11:54:16;;;;;;;3.25;1.50;;;25.60;90.90;;;;;;4948900;28;20070;-60
2022/07/17 11:56:50;;;;;;;4.68;2.00;;;25.50;90.60;;;;;;4958779;28;20069;-57
2022/07/17 11:59:30;;;;;;;4.78;1.75;;;25.60;90.70;;;;;;4964219;28;20051;-58
2022/07/17 12:01:56;;;;;;;2.95;1.80;;;25.80;91.40;;;;;;4948421;28;20081;-54
2022/07/17 12:04:22;;;;;;;3.55;2.00;;;25.90;90.90;;;;;;4972117;28;20075;-59
2022/07/17 12:07:00;;;;;;;4.70;2.20;;;26.00;91.20;;;;;;4947728;28;20101;-58
2022/07/17 12:09:33;;;;;;;4.88;2.10;;;26.00;90.40;;;;;;5005784;23;20380;-60
2022/07/17 12:11:59;;;;;;;4.28;1.80;;;26.00;88.70;;;;;;5052084;28;20414;-60
2022/07/17 12:14:25;;;;;;;4.40;1.92;;;26.00;90.00;;;;;;5033544;28;20051;-60
2022/07/17 12:16:51;;;;;;;5.57;2.33;;;26.10;89.90;;;;;;5069336;28;20032;-60
2022/07/17 12:19:19;;;;;;;4.07;2.13;;;26.10;88.00;;;;;;5068906;28;20044;-60
2022/07/17 12:21:53;;;;;;;4.25;2.15;;;25.80;83.10;;;;;;5067746;28;20051;-61
2022/07/17 12:24:39;;;;;;;3.45;1.80;;;25.60;85.70;;;;;;5051088;28;20048;-61
2022/07/17 12:27:07;;;;;;;6.03;1.90;;;25.80;88.80;;;;;;5079921;28;20041;-61
2022/07/17 12:29:34;;;;;;;5.00;2.30;;;26.00;88.40;;;;;;5083361;28;20041;-61
2022/07/17 12:32:12;;;;;;;6.13;2.17;;;26.00;85.00;;;;;;5038555;28;20044;-61
2022/07/17 12:34:44;;;;;;;2.50;1.70;;;26.10;87.30;;;;;;5084382;28;20055;-61
2022/07/17 12:37:21;;;;;;;3.70;2.17;;;26.40;87.80;;;;;;5040996;28;20403;-61
2022/07/17 12:39:48;;;;;;;5.60;2.38;;;26.50;87.40;;;;;;5050543;28;20131;-61
2022/07/17 12:42:15;;;;;;;4.35;2.10;;;26.80;87.60;;;;;;5068519;28;20302;-61
2022/07/17 12:44:42;;;;;;;5.60;2.30;;;26.80;87.60;;;;;;5045097;28;20082;-60
2022/07/17 12:47:08;;;;;;;5.40;2.40;;;26.90;85.00;;;;;;5058899;28;20043;-59